Weather at Václav Havel Airport Prague

Public forecast

Using degrees Celsius for public forecast. Weather courtesy of forecast.io.

Current aviation weather report (METAR) for Václav Havel Airport Prague

2024/05/25 04:30 (retrieved 36 minutes ago)

LKPR 250430Z VRB02KT 0200 R24/0275N R30/0275N FG VV002 11/10 Q1018 NOSIG

Closest aviation forecast (TAF) to Václav Havel Airport Prague

Forecast is more than 12 hours old.

Closest forecast is Grafenwöhr Army Air Field, 92.9 nm (172.1 km) WSW.

2024/05/23 18:17 (retrieved 1 day ago)

TAF ETIC 231800Z 2318/2500 VRB06KT FEW050 FEW100 SCT260 QNH2998INS BECMG 2319/2320 VRB03KT 9999 SCT045 BKN060 QNH2998INS BECMG 2401/2402 03006KT 3000 -RA BR BKN010 QNH3002INS TEMPO 2403/2406 0400 RA FG VV002 BECMG 2409/2410 20009KT 6000 RA BR SCT025 BKN030 QNH3003INS BECMG 2411/2412 21006KT 8000 SHRA VCTS SCT025 BKN030CB QNH3002INS BECMG 2415/2421 23006KT 9999 NSW FEW040 SCT045 QNH3002INS TX17/2415Z TN12/2404Z LAST NO AMDS AFT 2321 NEXT 2812